Scroll down
FLIGHT INFORMATION
Federal Express (FedEx)

FDX75

At Arrival Gate

PHNL
 NZAA
DATE: 2021-07-18
GATE: 
GATE DEPARTURE: 20:09
TAKEOFF: 20:21
DATE: 2021-07-19
GATE:  -
LANDING: 04:35
GATE ARRIVAL: 04:40
FLIGHT DATA
Crew: 
Speed: 
506 kts
Altitude: 
36,079 ft
Stage Length: 
3,827.5 nm
Block Time: 
8.5 hrs
Flight Time: 
8.2 hrs
Fuel Used: 
147,546 lb
Cleared Route: PHNL CARRP DATBE DASNE DULCE DUNEY PUPIS UXULU LANAT UBRAX POPIR KADEN MALNI TARIB AA NZAA
TRACK DATA
50,000 ft 1,000 kts
AIRCRAFT INFO AND CUMULATIVE STATS
Aircraft Type: 
B77LF
Registration: 
SELCAL: 
LPJK
MSN/LN: 
37729 / 936
Total Flights: 
2
Total Block Time: 
11.6 hrs
Total Flight Time: 
11.2 hrs
Total Fuel Used: 
195,145 lb
DATALINK LOG | Newest first | Current as of: 2022-10-05 21:17:31
LABEL SEQUENCE CONTENT Dn/Up
QD411904:40 61.6▼ Dn
QC361404:35▼ Dn
2U0647NZAA 181830Z AUTO 26018KT 9999 FEW047/// 13/11 Q0997 BECMG 9999 -SHRA TEMPO 6000 SHRA▲ Up
2S0647NZAA▼ Dn
2U3415NZAA 181800Z AUTO 25017G28KT 6000 RA FEW020/// SCT028/// 13/11 Q0996 BECMG 9999 -SHRA TEMPO 6000 SHRA▲ Up
2S3415NZAA▼ Dn
UM793948NO MATCHING CLEARANCE DATA AVAILABLE FROM ANSP▲ Up
UM253938REQUESTING OCEANIC CLRNC CT KZAK CS EP DATBE FL 320 ETA 20:54 SPD M0.84▼ Dn
QB080720:21▼ Dn
QA565620:09 209.2▼ Dn
A33647CLEARED TO NZAA VIA OPIHI3 CARRP DATBE G347 DUNEY G347 UBRAX G347 AA. SQUAWK 0744.▲ Up
2U3645PHNL 181053Z 07012KT 10SM FEW025 SCT038 BKN055 26/19 A3000 RMK AO2 SLP159 T02560194 $▲ Up
2U3645NZAA 181100Z AUTO 36009KT 9999 -RA FEW021/// SCT033/// BKN044/// 12/11 Q0994 TEMPO 4000 SHRA FEW020TCU▲ Up
2U3644YSSY 181130Z 26009G19KT CAVOK 11/04 Q1017▲ Up
2S3644PHNL NZAA YSSY▼ Dn
B33637PHNL NZAA FDX75 N858FD ▼ Dn
Q03334[LINK ACK]▲ Up
Q03334[LINK TEST]▼ Dn


AIRCRAFT HISTORY
FLIGHT DATE FLIGHT NO. ORIGIN DESTINATION CLEARED ROUTE BLOCK TIME FLIGHT TIME FUEL USED PILOT
2021-07-19FDX75NZAA YSSY NZAA AA PEBLU SASRO VELKU PLUGA RIKNI MARLN TESAT YSSY3.1 hrs2.9 hrs47,599 lbAllan Burek
2021-07-18FDX75PHNL NZAA PHNL CARRP DATBE DASNE DULCE DUNEY PUPIS UXULU LANAT UBRAX POPIR KADEN MALNI TARIB AA NZAA8.5 hrs8.2 hrs147,546 lbAllan Burek